sensor_id;sensor_type;location;lat;lon;timestamp;temperature;humidity
3262;DHT22;1643;47.746;9.000;2023-04-24T00:00:13;13.00;99.90
3262;DHT22;1643;47.746;9.000;2023-04-24T00:02:40;13.00;99.90
3262;DHT22;1643;47.746;9.000;2023-04-24T00:05:06;13.00;99.90
3262;DHT22;1643;47.746;9.000;2023-04-24T00:07:33;13.00;99.90
3262;DHT22;1643;47.746;9.000;2023-04-24T00:09:59;13.00;99.90
3262;DHT22;1643;47.746;9.000;2023-04-24T00:12:25;12.90;99.90
3262;DHT22;1643;47.746;9.000;2023-04-24T00:14:51;12.80;99.90
3262;DHT22;1643;47.746;9.000;2023-04-24T00:17:17;12.90;99.90
3262;DHT22;1643;47.746;9.000;2023-04-24T00:19:46;12.90;99.90
3262;DHT22;1643;47.746;9.000;2023-04-24T00:22:11;12.80;99.90
3262;DHT22;1643;47.746;9.000;2023-04-24T00:24:38;12.80;99.90
3262;DHT22;1643;47.746;9.000;2023-04-24T00:27:04;12.90;99.90
3262;DHT22;1643;47.746;9.000;2023-04-24T00:29:30;12.90;99.90
3262;DHT22;1643;47.746;9.000;2023-04-24T00:31:56;12.80;99.90
3262;DHT22;1643;47.746;9.000;2023-04-24T00:34:21;12.80;99.90
3262;DHT22;1643;47.746;9.000;2023-04-24T00:36:47;12.70;99.90
3262;DHT22;1643;47.746;9.000;2023-04-24T00:39:14;12.70;99.90
3262;DHT22;1643;47.746;9.000;2023-04-24T00:41:40;12.70;99.90
3262;DHT22;1643;47.746;9.000;2023-04-24T00:44:06;12.70;99.90
3262;DHT22;1643;47.746;9.000;2023-04-24T00:46:32;12.80;99.90
3262;DHT22;1643;47.746;9.000;2023-04-24T00:48:59;12.80;99.90
3262;DHT22;1643;47.746;9.000;2023-04-24T00:51:24;12.80;99.90
3262;DHT22;1643;47.746;9.000;2023-04-24T00:53:50;12.80;99.90
3262;DHT22;1643;47.746;9.000;2023-04-24T00:56:17;12.80;99.90
3262;DHT22;1643;47.746;9.000;2023-04-24T00:58:44;12.80;99.90
3262;DHT22;1643;47.746;9.000;2023-04-24T01:01:10;12.70;99.90
3262;DHT22;1643;47.746;9.000;2023-04-24T01:03:37;12.70;99.90
3262;DHT22;1643;47.746;9.000;2023-04-24T01:06:04;12.60;99.90
3262;DHT22;1643;47.746;9.000;2023-04-24T01:08:30;12.70;99.90
3262;DHT22;1643;47.746;9.000;2023-04-24T01:10:57;12.60;99.90
3262;DHT22;1643;47.746;9.000;2023-04-24T01:13:23;12.60;99.90
3262;DHT22;1643;47.746;9.000;2023-04-24T01:15:49;12.60;99.90
3262;DHT22;1643;47.746;9.000;2023-04-24T01:18:15;12.60;99.90
3262;DHT22;1643;47.746;9.000;2023-04-24T01:20:42;12.60;99.90
3262;DHT22;1643;47.746;9.000;2023-04-24T01:23:10;12.70;99.90
3262;DHT22;1643;47.746;9.000;2023-04-24T01:25:36;12.60;99.90
3262;DHT22;1643;47.746;9.000;2023-04-24T01:28:02;12.60;99.90
3262;DHT22;1643;47.746;9.000;2023-04-24T01:30:28;12.60;99.90
3262;DHT22;1643;47.746;9.000;2023-04-24T01:32:55;12.50;99.90
3262;DHT22;1643;47.746;9.000;2023-04-24T01:35:21;12.40;99.90
3262;DHT22;1643;47.746;9.000;2023-04-24T01:37:47;12.50;99.90
3262;DHT22;1643;47.746;9.000;2023-04-24T01:40:13;12.50;99.90
3262;DHT22;1643;47.746;9.000;2023-04-24T01:42:41;12.50;99.90
3262;DHT22;1643;47.746;9.000;2023-04-24T01:45:10;12.50;99.90
3262;DHT22;1643;47.746;9.000;2023-04-24T01:47:36;12.50;99.90
3262;DHT22;1643;47.746;9.000;2023-04-24T01:50:02;12.40;99.90
3262;DHT22;1643;47.746;9.000;2023-04-24T01:52:28;12.50;99.90
3262;DHT22;1643;47.746;9.000;2023-04-24T01:54:56;12.40;99.90
3262;DHT22;1643;47.746;9.000;2023-04-24T01:57:24;12.20;99.90
3262;DHT22;1643;47.746;9.000;2023-04-24T01:59:51;12.30;99.90
3262;DHT22;1643;47.746;9.000;2023-04-24T02:02:16;12.30;99.90
3262;DHT22;1643;47.746;9.000;2023-04-24T02:04:42;12.30;99.90
3262;DHT22;1643;47.746;9.000;2023-04-24T02:07:08;12.30;99.90
3262;DHT22;1643;47.746;9.000;2023-04-24T02:09:33;12.20;99.90
3262;DHT22;1643;47.746;9.000;2023-04-24T02:11:59;12.20;99.90
3262;DHT22;1643;47.746;9.000;2023-04-24T02:14:25;12.10;99.90
3262;DHT22;1643;47.746;9.000;2023-04-24T02:16:51;12.10;99.90
3262;DHT22;1643;47.746;9.000;2023-04-24T02:19:17;12.00;99.90
3262;DHT22;1643;47.746;9.000;2023-04-24T02:21:42;11.90;99.90
3262;DHT22;1643;47.746;9.000;2023-04-24T02:24:08;12.00;99.90
3262;DHT22;1643;47.746;9.000;2023-04-24T02:26:34;12.00;99.90
3262;DHT22;1643;47.746;9.000;2023-04-24T02:28:59;12.00;99.90
3262;DHT22;1643;47.746;9.000;2023-04-24T02:31:25;11.90;99.90
3262;DHT22;1643;47.746;9.000;2023-04-24T02:33:51;11.90;99.90
3262;DHT22;1643;47.746;9.000;2023-04-24T02:36:16;11.90;99.90
3262;DHT22;1643;47.746;9.000;2023-04-24T02:38:42;12.00;99.90
3262;DHT22;1643;47.746;9.000;2023-04-24T02:41:07;11.90;99.90
3262;DHT22;1643;47.746;9.000;2023-04-24T02:43:33;11.80;99.90
3262;DHT22;1643;47.746;9.000;2023-04-24T02:46:00;11.80;99.90
3262;DHT22;1643;47.746;9.000;2023-04-24T02:48:25;11.80;99.90
3262;DHT22;1643;47.746;9.000;2023-04-24T02:50:51;11.70;99.90
3262;DHT22;1643;47.746;9.000;2023-04-24T02:53:16;11.70;99.90
3262;DHT22;1643;47.746;9.000;2023-04-24T02:55:42;11.80;99.90
3262;DHT22;1643;47.746;9.000;2023-04-24T02:58:08;11.80;99.90
3262;DHT22;1643;47.746;9.000;2023-04-24T03:00:33;11.70;99.90
3262;DHT22;1643;47.746;9.000;2023-04-24T03:02:59;11.60;99.90
3262;DHT22;1643;47.746;9.000;2023-04-24T03:05:25;11.60;99.90
3262;DHT22;1643;47.746;9.000;2023-04-24T03:07:52;11.70;99.90
3262;DHT22;1643;47.746;9.000;2023-04-24T03:10:18;11.50;99.90
3262;DHT22;1643;47.746;9.000;2023-04-24T03:12:44;11.60;99.90
3262;DHT22;1643;47.746;9.000;2023-04-24T03:15:10;11.60;99.90
3262;DHT22;1643;47.746;9.000;2023-04-24T03:17:35;11.60;99.90
3262;DHT22;1643;47.746;9.000;2023-04-24T03:20:02;11.60;99.90
3262;DHT22;1643;47.746;9.000;2023-04-24T03:22:28;11.60;99.90
3262;DHT22;1643;47.746;9.000;2023-04-24T03:24:53;11.60;99.90
3262;DHT22;1643;47.746;9.000;2023-04-24T03:27:20;11.50;99.90
3262;DHT22;1643;47.746;9.000;2023-04-24T03:29:45;11.50;99.90
3262;DHT22;1643;47.746;9.000;2023-04-24T03:32:11;11.40;99.90
3262;DHT22;1643;47.746;9.000;2023-04-24T03:34:36;11.50;99.90
3262;DHT22;1643;47.746;9.000;2023-04-24T03:37:02;11.50;99.90
3262;DHT22;1643;47.746;9.000;2023-04-24T03:39:28;11.50;99.90
3262;DHT22;1643;47.746;9.000;2023-04-24T03:41:53;11.50;99.90
3262;DHT22;1643;47.746;9.000;2023-04-24T03:44:19;11.40;99.90
3262;DHT22;1643;47.746;9.000;2023-04-24T03:46:45;11.50;99.90
3262;DHT22;1643;47.746;9.000;2023-04-24T03:49:10;11.50;99.90
3262;DHT22;1643;47.746;9.000;2023-04-24T03:51:36;11.40;99.90
3262;DHT22;1643;47.746;9.000;2023-04-24T03:54:02;11.40;99.90
3262;DHT22;1643;47.746;9.000;2023-04-24T03:56:28;11.40;99.90
3262;DHT22;1643;47.746;9.000;2023-04-24T03:58:54;11.40;99.90
3262;DHT22;1643;47.746;9.000;2023-04-24T04:01:19;11.30;99.90
3262;DHT22;1643;47.746;9.000;2023-04-24T04:03:46;11.50;99.90
3262;DHT22;1643;47.746;9.000;2023-04-24T04:06:12;11.50;99.90
3262;DHT22;1643;47.746;9.000;2023-04-24T04:08:38;11.50;99.90
3262;DHT22;1643;47.746;9.000;2023-04-24T04:11:04;11.40;99.90
3262;DHT22;1643;47.746;9.000;2023-04-24T04:13:29;11.60;99.90
3262;DHT22;1643;47.746;9.000;2023-04-24T04:15:55;11.50;99.90
3262;DHT22;1643;47.746;9.000;2023-04-24T04:18:20;11.40;99.90
3262;DHT22;1643;47.746;9.000;2023-04-24T04:20:46;11.30;99.90
3262;DHT22;1643;47.746;9.000;2023-04-24T04:23:12;11.40;99.90
3262;DHT22;1643;47.746;9.000;2023-04-24T04:25:37;11.30;99.90
3262;DHT22;1643;47.746;9.000;2023-04-24T04:28:03;11.40;99.90
3262;DHT22;1643;47.746;9.000;2023-04-24T04:30:28;11.30;99.90
3262;DHT22;1643;47.746;9.000;2023-04-24T04:32:57;11.30;99.90
3262;DHT22;1643;47.746;9.000;2023-04-24T04:35:23;11.20;99.90
3262;DHT22;1643;47.746;9.000;2023-04-24T04:37:49;11.20;99.90
3262;DHT22;1643;47.746;9.000;2023-04-24T04:40:14;11.10;99.90
3262;DHT22;1643;47.746;9.000;2023-04-24T04:42:40;11.10;99.90
3262;DHT22;1643;47.746;9.000;2023-04-24T04:45:07;11.20;99.90
3262;DHT22;1643;47.746;9.000;2023-04-24T04:47:34;11.10;99.90
3262;DHT22;1643;47.746;9.000;2023-04-24T04:50:00;11.20;99.90
3262;DHT22;1643;47.746;9.000;2023-04-24T04:52:26;11.30;99.90
3262;DHT22;1643;47.746;9.000;2023-04-24T04:54:52;11.30;99.90
3262;DHT22;1643;47.746;9.000;2023-04-24T04:57:18;11.30;99.90
3262;DHT22;1643;47.746;9.000;2023-04-24T04:59:43;11.20;99.90
3262;DHT22;1643;47.746;9.000;2023-04-24T05:02:10;11.20;99.90
3262;DHT22;1643;47.746;9.000;2023-04-24T05:04:35;11.30;99.90
3262;DHT22;1643;47.746;9.000;2023-04-24T05:07:01;11.30;99.90
3262;DHT22;1643;47.746;9.000;2023-04-24T05:09:27;11.30;99.90
3262;DHT22;1643;47.746;9.000;2023-04-24T05:11:54;11.10;99.90
3262;DHT22;1643;47.746;9.000;2023-04-24T05:14:20;11.00;99.90
3262;DHT22;1643;47.746;9.000;2023-04-24T05:16:46;11.10;99.90
3262;DHT22;1643;47.746;9.000;2023-04-24T05:19:11;11.00;99.90
3262;DHT22;1643;47.746;9.000;2023-04-24T05:21:39;10.90;99.90
3262;DHT22;1643;47.746;9.000;2023-04-24T05:24:05;10.90;99.90
3262;DHT22;1643;47.746;9.000;2023-04-24T05:26:31;11.00;99.90
3262;DHT22;1643;47.746;9.000;2023-04-24T05:28:57;10.90;99.90
3262;DHT22;1643;47.746;9.000;2023-04-24T05:31:22;11.00;99.90
3262;DHT22;1643;47.746;9.000;2023-04-24T05:33:48;10.90;99.90
3262;DHT22;1643;47.746;9.000;2023-04-24T05:36:14;10.80;99.90
3262;DHT22;1643;47.746;9.000;2023-04-24T05:38:40;10.90;99.90
3262;DHT22;1643;47.746;9.000;2023-04-24T05:41:05;11.00;99.90
3262;DHT22;1643;47.746;9.000;2023-04-24T05:43:31;11.10;99.90
3262;DHT22;1643;47.746;9.000;2023-04-24T05:45:57;11.00;99.90
3262;DHT22;1643;47.746;9.000;2023-04-24T05:48:22;11.00;99.90
3262;DHT22;1643;47.746;9.000;2023-04-24T05:50:48;10.90;99.90
3262;DHT22;1643;47.746;9.000;2023-04-24T05:53:14;11.00;99.90
3262;DHT22;1643;47.746;9.000;2023-04-24T05:55:40;10.90;99.90
3262;DHT22;1643;47.746;9.000;2023-04-24T05:58:05;10.80;99.90
3262;DHT22;1643;47.746;9.000;2023-04-24T06:00:31;10.90;99.90
3262;DHT22;1643;47.746;9.000;2023-04-24T06:02:57;10.80;99.90
3262;DHT22;1643;47.746;9.000;2023-04-24T06:05:24;10.90;99.90
3262;DHT22;1643;47.746;9.000;2023-04-24T06:07:50;11.00;99.90
3262;DHT22;1643;47.746;9.000;2023-04-24T06:10:16;11.00;99.90
3262;DHT22;1643;47.746;9.000;2023-04-24T06:12:41;10.90;99.90
3262;DHT22;1643;47.746;9.000;2023-04-24T06:15:07;11.10;99.90
3262;DHT22;1643;47.746;9.000;2023-04-24T06:17:33;11.10;99.90
3262;DHT22;1643;47.746;9.000;2023-04-24T06:19:59;11.10;99.90
3262;DHT22;1643;47.746;9.000;2023-04-24T06:22:24;11.20;99.90
3262;DHT22;1643;47.746;9.000;2023-04-24T06:24:50;11.40;99.90
3262;DHT22;1643;47.746;9.000;2023-04-24T06:27:16;11.40;99.90
3262;DHT22;1643;47.746;9.000;2023-04-24T06:29:41;11.30;99.90
3262;DHT22;1643;47.746;9.000;2023-04-24T06:32:07;11.20;99.90
3262;DHT22;1643;47.746;9.000;2023-04-24T06:34:33;11.10;99.90
3262;DHT22;1643;47.746;9.000;2023-04-24T06:37:00;11.30;99.90
3262;DHT22;1643;47.746;9.000;2023-04-24T06:39:25;11.40;99.90
3262;DHT22;1643;47.746;9.000;2023-04-24T06:41:51;11.40;99.90
3262;DHT22;1643;47.746;9.000;2023-04-24T06:44:16;11.30;99.90
3262;DHT22;1643;47.746;9.000;2023-04-24T06:46:42;11.20;99.90
3262;DHT22;1643;47.746;9.000;2023-04-24T06:49:08;11.20;99.90
3262;DHT22;1643;47.746;9.000;2023-04-24T06:51:33;11.20;99.90
3262;DHT22;1643;47.746;9.000;2023-04-24T06:53:59;11.40;99.90
3262;DHT22;1643;47.746;9.000;2023-04-24T06:56:25;11.40;99.90
3262;DHT22;1643;47.746;9.000;2023-04-24T06:58:51;11.40;99.90
3262;DHT22;1643;47.746;9.000;2023-04-24T07:01:17;11.60;99.90
3262;DHT22;1643;47.746;9.000;2023-04-24T07:03:42;11.70;99.90
3262;DHT22;1643;47.746;9.000;2023-04-24T07:06:09;11.80;99.90
3262;DHT22;1643;47.746;9.000;2023-04-24T07:08:38;12.00;99.90
3262;DHT22;1643;47.746;9.000;2023-04-24T07:11:04;12.00;99.90
3262;DHT22;1643;47.746;9.000;2023-04-24T07:13:30;12.00;99.90
3262;DHT22;1643;47.746;9.000;2023-04-24T07:15:55;12.10;99.90
3262;DHT22;1643;47.746;9.000;2023-04-24T07:18:22;12.10;99.90
3262;DHT22;1643;47.746;9.000;2023-04-24T07:20:47;12.10;99.90
3262;DHT22;1643;47.746;9.000;2023-04-24T07:23:15;12.20;99.90
3262;DHT22;1643;47.746;9.000;2023-04-24T07:25:41;12.20;99.90
3262;DHT22;1643;47.746;9.000;2023-04-24T07:28:06;12.20;99.90
3262;DHT22;1643;47.746;9.000;2023-04-24T07:30:32;12.20;99.90
3262;DHT22;1643;47.746;9.000;2023-04-24T07:32:58;12.20;99.90
3262;DHT22;1643;47.746;9.000;2023-04-24T07:35:25;12.30;99.90
3262;DHT22;1643;47.746;9.000;2023-04-24T07:37:52;12.30;99.90
3262;DHT22;1643;47.746;9.000;2023-04-24T07:40:18;12.30;99.90
3262;DHT22;1643;47.746;9.000;2023-04-24T07:42:44;12.20;99.90
3262;DHT22;1643;47.746;9.000;2023-04-24T07:45:09;12.10;99.90
3262;DHT22;1643;47.746;9.000;2023-04-24T07:47:35;12.20;99.90
3262;DHT22;1643;47.746;9.000;2023-04-24T07:50:02;12.10;99.90
3262;DHT22;1643;47.746;9.000;2023-04-24T07:52:28;12.10;99.90
3262;DHT22;1643;47.746;9.000;2023-04-24T07:54:55;12.10;99.90
3262;DHT22;1643;47.746;9.000;2023-04-24T07:57:24;12.00;99.90
3262;DHT22;1643;47.746;9.000;2023-04-24T07:59:50;12.00;99.90
3262;DHT22;1643;47.746;9.000;2023-04-24T08:02:16;11.80;99.90
3262;DHT22;1643;47.746;9.000;2023-04-24T08:04:41;11.80;99.90
3262;DHT22;1643;47.746;9.000;2023-04-24T08:07:07;11.60;99.90
3262;DHT22;1643;47.746;9.000;2023-04-24T08:09:33;11.70;99.90
3262;DHT22;1643;47.746;9.000;2023-04-24T08:11:59;11.60;99.90
3262;DHT22;1643;47.746;9.000;2023-04-24T08:14:25;11.60;99.90
3262;DHT22;1643;47.746;9.000;2023-04-24T08:16:52;11.60;99.90
3262;DHT22;1643;47.746;9.000;2023-04-24T08:19:17;11.60;99.90
3262;DHT22;1643;47.746;9.000;2023-04-24T08:21:43;11.60;99.90
3262;DHT22;1643;47.746;9.000;2023-04-24T08:24:08;11.70;99.90
3262;DHT22;1643;47.746;9.000;2023-04-24T08:26:34;11.80;99.90
3262;DHT22;1643;47.746;9.000;2023-04-24T08:29:01;11.70;99.90
3262;DHT22;1643;47.746;9.000;2023-04-24T08:31:27;11.80;99.90
3262;DHT22;1643;47.746;9.000;2023-04-24T08:33:52;11.80;99.90
3262;DHT22;1643;47.746;9.000;2023-04-24T08:36:18;11.90;99.90
3262;DHT22;1643;47.746;9.000;2023-04-24T08:38:43;11.80;99.90
3262;DHT22;1643;47.746;9.000;2023-04-24T08:41:11;11.90;99.90
3262;DHT22;1643;47.746;9.000;2023-04-24T08:43:40;11.80;99.90
3262;DHT22;1643;47.746;9.000;2023-04-24T08:46:06;11.90;99.90
3262;DHT22;1643;47.746;9.000;2023-04-24T08:48:32;11.90;99.90
3262;DHT22;1643;47.746;9.000;2023-04-24T08:50:58;12.00;99.90
3262;DHT22;1643;47.746;9.000;2023-04-24T08:53:25;12.00;99.90
3262;DHT22;1643;47.746;9.000;2023-04-24T08:55:51;12.10;99.90
3262;DHT22;1643;47.746;9.000;2023-04-24T08:58:18;12.30;99.90
3262;DHT22;1643;47.746;9.000;2023-04-24T09:00:44;12.20;99.90
3262;DHT22;1643;47.746;9.000;2023-04-24T09:03:14;12.20;99.90
3262;DHT22;1643;47.746;9.000;2023-04-24T09:05:42;12.40;99.90
3262;DHT22;1643;47.746;9.000;2023-04-24T09:08:12;12.40;99.90
3262;DHT22;1643;47.746;9.000;2023-04-24T09:10:39;12.40;99.90
3262;DHT22;1643;47.746;9.000;2023-04-24T09:13:05;12.40;99.90
3262;DHT22;1643;47.746;9.000;2023-04-24T09:15:31;12.50;99.90
3262;DHT22;1643;47.746;9.000;2023-04-24T09:17:57;12.50;99.90
3262;DHT22;1643;47.746;9.000;2023-04-24T09:20:23;12.60;99.90
3262;DHT22;1643;47.746;9.000;2023-04-24T09:22:54;12.60;99.90
3262;DHT22;1643;47.746;9.000;2023-04-24T09:25:21;12.60;99.90
3262;DHT22;1643;47.746;9.000;2023-04-24T09:27:46;12.70;99.90
3262;DHT22;1643;47.746;9.000;2023-04-24T09:30:12;12.80;99.90
3262;DHT22;1643;47.746;9.000;2023-04-24T09:32:39;12.90;99.90
3262;DHT22;1643;47.746;9.000;2023-04-24T09:35:06;12.90;99.90
3262;DHT22;1643;47.746;9.000;2023-04-24T09:37:36;12.90;99.90
3262;DHT22;1643;47.746;9.000;2023-04-24T09:42:33;13.00;99.90
3262;DHT22;1643;47.746;9.000;2023-04-24T09:44:59;13.20;99.90
3262;DHT22;1643;47.746;9.000;2023-04-24T09:47:25;13.20;99.90
3262;DHT22;1643;47.746;9.000;2023-04-24T09:49:50;13.20;99.90
3262;DHT22;1643;47.746;9.000;2023-04-24T09:52:19;13.30;99.90
3262;DHT22;1643;47.746;9.000;2023-04-24T09:54:52;13.40;99.70
3262;DHT22;1643;47.746;9.000;2023-04-24T09:57:18;13.50;99.30
3262;DHT22;1643;47.746;9.000;2023-04-24T09:59:46;13.50;99.20
3262;DHT22;1643;47.746;9.000;2023-04-24T10:02:19;13.30;99.10
3262;DHT22;1643;47.746;9.000;2023-04-24T10:04:55;13.50;98.40
3262;DHT22;1643;47.746;9.000;2023-04-24T10:07:21;13.50;98.10
3262;DHT22;1643;47.746;9.000;2023-04-24T10:09:47;13.50;97.30
3262;DHT22;1643;47.746;9.000;2023-04-24T10:12:14;13.50;98.30
3262;DHT22;1643;47.746;9.000;2023-04-24T10:14:40;13.50;97.10
3262;DHT22;1643;47.746;9.000;2023-04-24T10:17:06;13.50;96.80
3262;DHT22;1643;47.746;9.000;2023-04-24T10:19:33;13.50;96.80
3262;DHT22;1643;47.746;9.000;2023-04-24T10:21:59;13.50;95.30
3262;DHT22;1643;47.746;9.000;2023-04-24T10:24:25;13.30;95.20
3262;DHT22;1643;47.746;9.000;2023-04-24T10:26:51;13.20;95.50
3262;DHT22;1643;47.746;9.000;2023-04-24T10:29:18;13.30;96.10
3262;DHT22;1643;47.746;9.000;2023-04-24T10:31:44;13.40;95.00
3262;DHT22;1643;47.746;9.000;2023-04-24T10:34:15;13.40;95.50
3262;DHT22;1643;47.746;9.000;2023-04-24T10:36:45;13.50;95.40
3262;DHT22;1643;47.746;9.000;2023-04-24T10:39:14;13.40;96.10
3262;DHT22;1643;47.746;9.000;2023-04-24T10:41:43;13.40;96.00
3262;DHT22;1643;47.746;9.000;2023-04-24T10:44:10;13.50;96.30
3262;DHT22;1643;47.746;9.000;2023-04-24T10:46:37;13.50;95.90
3262;DHT22;1643;47.746;9.000;2023-04-24T10:49:06;13.50;96.30
3262;DHT22;1643;47.746;9.000;2023-04-24T10:51:51;13.80;95.70
3262;DHT22;1643;47.746;9.000;2023-04-24T10:54:42;13.90;95.70
3262;DHT22;1643;47.746;9.000;2023-04-24T10:59:51;14.10;96.30
3262;DHT22;1643;47.746;9.000;2023-04-24T11:02:38;14.20;96.00
3262;DHT22;1643;47.746;9.000;2023-04-24T11:05:06;14.20;95.80
3262;DHT22;1643;47.746;9.000;2023-04-24T11:11:00;14.00;94.70
3262;DHT22;1643;47.746;9.000;2023-04-24T11:14:00;14.10;94.70
3262;DHT22;1643;47.746;9.000;2023-04-24T11:19:08;13.70;95.10
3262;DHT22;1643;47.746;9.000;2023-04-24T11:32:27;14.30;94.10
3262;DHT22;1643;47.746;9.000;2023-04-24T11:37:40;14.00;94.30
3262;DHT22;1643;47.746;9.000;2023-04-24T11:40:08;14.00;94.20
3262;DHT22;1643;47.746;9.000;2023-04-24T11:42:35;14.10;94.10
3262;DHT22;1643;47.746;9.000;2023-04-24T11:45:01;14.10;95.00
3262;DHT22;1643;47.746;9.000;2023-04-24T11:47:32;14.10;93.90
3262;DHT22;1643;47.746;9.000;2023-04-24T11:49:59;14.00;94.30
3262;DHT22;1643;47.746;9.000;2023-04-24T11:52:26;14.10;94.30
3262;DHT22;1643;47.746;9.000;2023-04-24T11:54:52;14.40;94.70
3262;DHT22;1643;47.746;9.000;2023-04-24T11:57:21;14.50;94.20
3262;DHT22;1643;47.746;9.000;2023-04-24T11:59:48;14.60;94.00
3262;DHT22;1643;47.746;9.000;2023-04-24T12:02:40;14.70;94.40
3262;DHT22;1643;47.746;9.000;2023-04-24T12:05:06;14.80;93.80
3262;DHT22;1643;47.746;9.000;2023-04-24T12:07:41;14.40;92.90
3262;DHT22;1643;47.746;9.000;2023-04-24T12:10:08;14.20;93.50
3262;DHT22;1643;47.746;9.000;2023-04-24T12:12:34;14.10;93.70
3262;DHT22;1643;47.746;9.000;2023-04-24T12:15:01;13.90;94.20
3262;DHT22;1643;47.746;9.000;2023-04-24T12:17:32;13.90;94.30
3262;DHT22;1643;47.746;9.000;2023-04-24T12:20:00;13.90;94.20
3262;DHT22;1643;47.746;9.000;2023-04-24T12:22:26;13.90;94.20
3262;DHT22;1643;47.746;9.000;2023-04-24T12:24:56;13.80;94.50
3262;DHT22;1643;47.746;9.000;2023-04-24T12:27:22;13.90;93.90
3262;DHT22;1643;47.746;9.000;2023-04-24T12:30:11;14.00;93.60
3262;DHT22;1643;47.746;9.000;2023-04-24T12:32:42;13.90;93.30
3262;DHT22;1643;47.746;9.000;2023-04-24T12:35:08;13.90;93.50
3262;DHT22;1643;47.746;9.000;2023-04-24T12:37:33;13.90;93.90
3262;DHT22;1643;47.746;9.000;2023-04-24T12:40:04;13.90;93.90
3262;DHT22;1643;47.746;9.000;2023-04-24T12:42:34;13.90;94.20
3262;DHT22;1643;47.746;9.000;2023-04-24T12:45:05;14.00;94.20
3262;DHT22;1643;47.746;9.000;2023-04-24T12:47:32;14.00;94.40
3262;DHT22;1643;47.746;9.000;2023-04-24T12:49:58;14.00;94.80
3262;DHT22;1643;47.746;9.000;2023-04-24T12:52:25;14.10;95.10
3262;DHT22;1643;47.746;9.000;2023-04-24T12:54:56;14.20;94.50
3262;DHT22;1643;47.746;9.000;2023-04-24T12:57:23;14.40;94.60
3262;DHT22;1643;47.746;9.000;2023-04-24T12:59:49;14.30;94.90
3262;DHT22;1643;47.746;9.000;2023-04-24T13:02:16;14.50;94.80
3262;DHT22;1643;47.746;9.000;2023-04-24T13:04:47;14.50;94.80
3262;DHT22;1643;47.746;9.000;2023-04-24T13:07:14;14.40;94.00
3262;DHT22;1643;47.746;9.000;2023-04-24T13:09:40;14.30;94.70
3262;DHT22;1643;47.746;9.000;2023-04-24T13:12:06;14.20;95.00
3262;DHT22;1643;47.746;9.000;2023-04-24T13:14:32;14.30;94.70
3262;DHT22;1643;47.746;9.000;2023-04-24T13:16:58;14.40;94.30
3262;DHT22;1643;47.746;9.000;2023-04-24T13:19:27;14.70;94.50
3262;DHT22;1643;47.746;9.000;2023-04-24T13:21:55;14.70;94.70
3262;DHT22;1643;47.746;9.000;2023-04-24T13:24:22;14.50;94.70
3262;DHT22;1643;47.746;9.000;2023-04-24T13:26:50;14.50;94.10
3262;DHT22;1643;47.746;9.000;2023-04-24T13:29:15;14.40;93.50
3262;DHT22;1643;47.746;9.000;2023-04-24T13:31:41;14.20;93.10
3262;DHT22;1643;47.746;9.000;2023-04-24T13:34:07;14.40;93.20
3262;DHT22;1643;47.746;9.000;2023-04-24T13:36:32;14.70;91.80
3262;DHT22;1643;47.746;9.000;2023-04-24T13:38:58;14.90;91.90
3262;DHT22;1643;47.746;9.000;2023-04-24T13:41:24;15.00;91.90
3262;DHT22;1643;47.746;9.000;2023-04-24T13:43:50;15.20;91.20
3262;DHT22;1643;47.746;9.000;2023-04-24T13:46:16;15.40;91.70
3262;DHT22;1643;47.746;9.000;2023-04-24T13:48:41;15.40;92.00
3262;DHT22;1643;47.746;9.000;2023-04-24T13:51:07;15.70;92.60
3262;DHT22;1643;47.746;9.000;2023-04-24T13:53:33;15.60;91.70
3262;DHT22;1643;47.746;9.000;2023-04-24T13:56:01;15.60;91.30
3262;DHT22;1643;47.746;9.000;2023-04-24T13:58:27;15.40;91.50
3262;DHT22;1643;47.746;9.000;2023-04-24T14:00:53;15.20;92.00
3262;DHT22;1643;47.746;9.000;2023-04-24T14:03:18;15.00;92.10
3262;DHT22;1643;47.746;9.000;2023-04-24T14:05:44;14.90;92.30
3262;DHT22;1643;47.746;9.000;2023-04-24T14:08:10;14.80;92.30
3262;DHT22;1643;47.746;9.000;2023-04-24T14:10:35;14.70;92.50
3262;DHT22;1643;47.746;9.000;2023-04-24T14:13:01;14.70;92.60
3262;DHT22;1643;47.746;9.000;2023-04-24T14:15:27;14.50;93.00
3262;DHT22;1643;47.746;9.000;2023-04-24T14:17:53;14.40;93.30
3262;DHT22;1643;47.746;9.000;2023-04-24T14:20:19;14.40;93.30
3262;DHT22;1643;47.746;9.000;2023-04-24T14:22:45;14.40;93.50
3262;DHT22;1643;47.746;9.000;2023-04-24T14:25:11;14.30;93.60
3262;DHT22;1643;47.746;9.000;2023-04-24T14:27:36;14.20;93.60
3262;DHT22;1643;47.746;9.000;2023-04-24T14:30:02;14.20;93.00
3262;DHT22;1643;47.746;9.000;2023-04-24T14:32:28;14.20;94.00
3262;DHT22;1643;47.746;9.000;2023-04-24T14:34:54;14.10;93.80
3262;DHT22;1643;47.746;9.000;2023-04-24T14:37:19;14.40;93.90
3262;DHT22;1643;47.746;9.000;2023-04-24T14:39:45;14.60;92.60
3262;DHT22;1643;47.746;9.000;2023-04-24T14:42:11;14.60;92.70
3262;DHT22;1643;47.746;9.000;2023-04-24T14:44:36;14.60;92.40
3262;DHT22;1643;47.746;9.000;2023-04-24T14:47:02;14.70;93.10
3262;DHT22;1643;47.746;9.000;2023-04-24T14:49:27;14.90;93.20
3262;DHT22;1643;47.746;9.000;2023-04-24T14:51:53;14.70;92.60
3262;DHT22;1643;47.746;9.000;2023-04-24T14:54:19;14.40;92.70
3262;DHT22;1643;47.746;9.000;2023-04-24T14:56:48;14.40;93.60
3262;DHT22;1643;47.746;9.000;2023-04-24T14:59:14;14.40;93.70
3262;DHT22;1643;47.746;9.000;2023-04-24T15:01:40;14.40;94.00
3262;DHT22;1643;47.746;9.000;2023-04-24T15:04:06;14.60;94.00
3262;DHT22;1643;47.746;9.000;2023-04-24T15:06:31;14.50;93.90
3262;DHT22;1643;47.746;9.000;2023-04-24T15:08:58;14.50;93.40
3262;DHT22;1643;47.746;9.000;2023-04-24T15:11:23;14.50;93.70
3262;DHT22;1643;47.746;9.000;2023-04-24T15:13:50;14.50;93.10
3262;DHT22;1643;47.746;9.000;2023-04-24T15:16:15;14.80;92.80
3262;DHT22;1643;47.746;9.000;2023-04-24T15:18:41;14.70;93.50
3262;DHT22;1643;47.746;9.000;2023-04-24T15:21:07;14.90;94.10
3262;DHT22;1643;47.746;9.000;2023-04-24T15:23:32;15.10;94.00
3262;DHT22;1643;47.746;9.000;2023-04-24T15:25:58;15.30;94.00
3262;DHT22;1643;47.746;9.000;2023-04-24T15:28:24;15.40;93.20
3262;DHT22;1643;47.746;9.000;2023-04-24T15:30:50;15.10;93.70
3262;DHT22;1643;47.746;9.000;2023-04-24T15:33:16;15.10;94.10
3262;DHT22;1643;47.746;9.000;2023-04-24T15:35:41;15.40;93.40
3262;DHT22;1643;47.746;9.000;2023-04-24T15:38:07;15.30;93.60
3262;DHT22;1643;47.746;9.000;2023-04-24T15:40:33;15.40;93.30
3262;DHT22;1643;47.746;9.000;2023-04-24T15:42:59;15.50;92.20
3262;DHT22;1643;47.746;9.000;2023-04-24T15:45:24;15.40;92.70
3262;DHT22;1643;47.746;9.000;2023-04-24T15:47:50;15.60;92.50
3262;DHT22;1643;47.746;9.000;2023-04-24T15:50:16;15.50;92.30
3262;DHT22;1643;47.746;9.000;2023-04-24T15:52:43;15.40;92.80
3262;DHT22;1643;47.746;9.000;2023-04-24T15:55:09;15.50;93.30
3262;DHT22;1643;47.746;9.000;2023-04-24T15:57:35;15.50;93.40
3262;DHT22;1643;47.746;9.000;2023-04-24T16:00:02;15.40;93.70
3262;DHT22;1643;47.746;9.000;2023-04-24T16:02:31;15.50;93.50
3262;DHT22;1643;47.746;9.000;2023-04-24T16:04:57;15.60;93.30
3262;DHT22;1643;47.746;9.000;2023-04-24T16:07:22;15.30;92.50
3262;DHT22;1643;47.746;9.000;2023-04-24T16:09:48;15.00;91.70
3262;DHT22;1643;47.746;9.000;2023-04-24T16:12:14;14.60;92.00
3262;DHT22;1643;47.746;9.000;2023-04-24T16:14:40;14.50;92.50
3262;DHT22;1643;47.746;9.000;2023-04-24T16:17:06;14.30;93.10
3262;DHT22;1643;47.746;9.000;2023-04-24T16:19:31;14.40;93.40
3262;DHT22;1643;47.746;9.000;2023-04-24T16:22:00;14.30;93.50